sensor_id;sensor_type;location;lat;lon;timestamp;temperature;humidity
48264;DHT22;34086;51.076;13.722;2022-12-07T00:00:45;3.50;99.90
48264;DHT22;34086;51.076;13.722;2022-12-07T00:01:46;3.50;99.90
48264;DHT22;34086;51.076;13.722;2022-12-07T00:02:47;3.40;99.90
48264;DHT22;34086;51.076;13.722;2022-12-07T00:03:49;3.40;99.90
48264;DHT22;34086;51.076;13.722;2022-12-07T00:04:51;3.50;99.90
48264;DHT22;34086;51.076;13.722;2022-12-07T00:05:52;3.50;99.90
48264;DHT22;34086;51.076;13.722;2022-12-07T00:06:53;3.40;99.90
48264;DHT22;34086;51.076;13.722;2022-12-07T00:07:53;3.40;99.90
48264;DHT22;34086;51.076;13.722;2022-12-07T00:08:54;3.40;99.90
48264;DHT22;34086;51.076;13.722;2022-12-07T00:09:55;3.40;99.90
48264;DHT22;34086;51.076;13.722;2022-12-07T00:11:10;3.40;99.90
48264;DHT22;34086;51.076;13.722;2022-12-07T00:12:11;3.40;99.90
48264;DHT22;34086;51.076;13.722;2022-12-07T00:13:12;3.40;99.90
48264;DHT22;34086;51.076;13.722;2022-12-07T00:14:14;3.40;99.90
48264;DHT22;34086;51.076;13.722;2022-12-07T00:15:15;3.40;99.90
48264;DHT22;34086;51.076;13.722;2022-12-07T00:16:17;3.40;99.90
48264;DHT22;34086;51.076;13.722;2022-12-07T00:17:18;3.40;99.90
48264;DHT22;34086;51.076;13.722;2022-12-07T00:18:19;3.40;99.90
48264;DHT22;34086;51.076;13.722;2022-12-07T00:19:22;3.40;99.90
48264;DHT22;34086;51.076;13.722;2022-12-07T00:20:23;3.40;99.90
48264;DHT22;34086;51.076;13.722;2022-12-07T00:21:29;3.40;99.90
48264;DHT22;34086;51.076;13.722;2022-12-07T00:22:30;3.40;99.90
48264;DHT22;34086;51.076;13.722;2022-12-07T00:23:31;3.40;99.90
48264;DHT22;34086;51.076;13.722;2022-12-07T00:24:36;3.40;99.90
48264;DHT22;34086;51.076;13.722;2022-12-07T00:25:37;3.40;99.90
48264;DHT22;34086;51.076;13.722;2022-12-07T00:26:39;3.40;99.90
48264;DHT22;34086;51.076;13.722;2022-12-07T00:27:41;3.40;99.90
48264;DHT22;34086;51.076;13.722;2022-12-07T00:28:51;3.40;99.90
48264;DHT22;34086;51.076;13.722;2022-12-07T00:29:52;3.40;99.90
48264;DHT22;34086;51.076;13.722;2022-12-07T00:31:06;3.40;99.90
48264;DHT22;34086;51.076;13.722;2022-12-07T00:32:07;3.40;99.90
48264;DHT22;34086;51.076;13.722;2022-12-07T00:33:08;3.40;99.90
48264;DHT22;34086;51.076;13.722;2022-12-07T00:34:13;3.40;99.90
48264;DHT22;34086;51.076;13.722;2022-12-07T00:35:15;3.40;99.90
48264;DHT22;34086;51.076;13.722;2022-12-07T00:36:18;3.40;99.90
48264;DHT22;34086;51.076;13.722;2022-12-07T00:37:19;3.40;99.90
48264;DHT22;34086;51.076;13.722;2022-12-07T00:38:19;3.40;99.90
48264;DHT22;34086;51.076;13.722;2022-12-07T00:39:20;3.30;99.90
48264;DHT22;34086;51.076;13.722;2022-12-07T00:40:21;3.30;99.90
48264;DHT22;34086;51.076;13.722;2022-12-07T00:41:23;3.30;99.90
48264;DHT22;34086;51.076;13.722;2022-12-07T00:42:24;3.30;99.90
48264;DHT22;34086;51.076;13.722;2022-12-07T00:43:25;3.40;99.90
48264;DHT22;34086;51.076;13.722;2022-12-07T00:44:26;3.40;99.90
48264;DHT22;34086;51.076;13.722;2022-12-07T00:45:26;3.40;99.90
48264;DHT22;34086;51.076;13.722;2022-12-07T00:46:27;3.40;99.90
48264;DHT22;34086;51.076;13.722;2022-12-07T00:47:28;3.40;99.90
48264;DHT22;34086;51.076;13.722;2022-12-07T00:48:29;3.40;99.90
48264;DHT22;34086;51.076;13.722;2022-12-07T00:49:30;3.40;99.90
48264;DHT22;34086;51.076;13.722;2022-12-07T00:50:30;3.40;99.90
48264;DHT22;34086;51.076;13.722;2022-12-07T00:51:31;3.40;99.90
48264;DHT22;34086;51.076;13.722;2022-12-07T00:52:32;3.40;99.90
48264;DHT22;34086;51.076;13.722;2022-12-07T00:53:36;3.40;99.90
48264;DHT22;34086;51.076;13.722;2022-12-07T00:54:37;3.40;99.90
48264;DHT22;34086;51.076;13.722;2022-12-07T00:55:38;3.40;99.90
48264;DHT22;34086;51.076;13.722;2022-12-07T00:56:39;3.50;99.90
48264;DHT22;34086;51.076;13.722;2022-12-07T00:57:39;3.40;99.90
48264;DHT22;34086;51.076;13.722;2022-12-07T00:58:40;3.40;99.90
48264;DHT22;34086;51.076;13.722;2022-12-07T00:59:41;3.50;99.90
48264;DHT22;34086;51.076;13.722;2022-12-07T01:00:42;3.50;99.90
48264;DHT22;34086;51.076;13.722;2022-12-07T01:01:43;3.50;99.90
48264;DHT22;34086;51.076;13.722;2022-12-07T01:02:44;3.50;99.90
48264;DHT22;34086;51.076;13.722;2022-12-07T01:03:44;3.50;99.90
48264;DHT22;34086;51.076;13.722;2022-12-07T01:04:45;3.50;99.90
48264;DHT22;34086;51.076;13.722;2022-12-07T01:05:53;3.50;99.90
48264;DHT22;34086;51.076;13.722;2022-12-07T01:06:54;3.50;99.90
48264;DHT22;34086;51.076;13.722;2022-12-07T01:07:55;3.50;99.90
48264;DHT22;34086;51.076;13.722;2022-12-07T01:08:56;3.50;99.90
48264;DHT22;34086;51.076;13.722;2022-12-07T01:09:57;3.50;99.90
48264;DHT22;34086;51.076;13.722;2022-12-07T01:11:00;3.50;99.90
48264;DHT22;34086;51.076;13.722;2022-12-07T01:12:01;3.50;99.90
48264;DHT22;34086;51.076;13.722;2022-12-07T01:13:03;3.50;99.90
48264;DHT22;34086;51.076;13.722;2022-12-07T01:14:03;3.50;99.90
48264;DHT22;34086;51.076;13.722;2022-12-07T01:15:05;3.50;99.90
48264;DHT22;34086;51.076;13.722;2022-12-07T01:16:07;3.50;99.90
48264;DHT22;34086;51.076;13.722;2022-12-07T01:17:08;3.50;99.90
48264;DHT22;34086;51.076;13.722;2022-12-07T01:18:09;3.50;99.90
48264;DHT22;34086;51.076;13.722;2022-12-07T01:19:09;3.60;99.90
48264;DHT22;34086;51.076;13.722;2022-12-07T01:20:11;3.60;99.90
48264;DHT22;34086;51.076;13.722;2022-12-07T01:21:29;3.60;99.90
48264;DHT22;34086;51.076;13.722;2022-12-07T01:22:30;3.50;99.90
48264;DHT22;34086;51.076;13.722;2022-12-07T01:23:32;3.50;99.90
48264;DHT22;34086;51.076;13.722;2022-12-07T01:24:33;3.50;99.90
48264;DHT22;34086;51.076;13.722;2022-12-07T01:25:33;3.50;99.90
48264;DHT22;34086;51.076;13.722;2022-12-07T01:26:34;3.50;99.90
48264;DHT22;34086;51.076;13.722;2022-12-07T01:27:35;3.50;99.90
48264;DHT22;34086;51.076;13.722;2022-12-07T01:28:36;3.50;99.90
48264;DHT22;34086;51.076;13.722;2022-12-07T01:29:37;3.50;99.90
48264;DHT22;34086;51.076;13.722;2022-12-07T01:30:38;3.50;99.90
48264;DHT22;34086;51.076;13.722;2022-12-07T01:31:38;3.50;99.90
48264;DHT22;34086;51.076;13.722;2022-12-07T01:32:39;3.50;99.90
48264;DHT22;34086;51.076;13.722;2022-12-07T01:33:41;3.50;99.90
48264;DHT22;34086;51.076;13.722;2022-12-07T01:34:42;3.50;99.90
48264;DHT22;34086;51.076;13.722;2022-12-07T01:35:43;3.50;99.90
48264;DHT22;34086;51.076;13.722;2022-12-07T01:36:43;3.60;99.90
48264;DHT22;34086;51.076;13.722;2022-12-07T01:37:44;3.60;99.90
48264;DHT22;34086;51.076;13.722;2022-12-07T01:38:46;3.60;99.90
48264;DHT22;34086;51.076;13.722;2022-12-07T01:39:51;3.50;99.90
48264;DHT22;34086;51.076;13.722;2022-12-07T01:40:56;3.50;99.90
48264;DHT22;34086;51.076;13.722;2022-12-07T01:41:56;3.60;99.90
48264;DHT22;34086;51.076;13.722;2022-12-07T01:42:57;3.60;99.90
48264;DHT22;34086;51.076;13.722;2022-12-07T01:44:08;3.50;99.90
48264;DHT22;34086;51.076;13.722;2022-12-07T01:46:19;3.60;99.90
48264;DHT22;34086;51.076;13.722;2022-12-07T01:47:19;3.60;99.90
48264;DHT22;34086;51.076;13.722;2022-12-07T01:48:36;3.60;99.90
48264;DHT22;34086;51.076;13.722;2022-12-07T01:49:44;3.60;99.90
48264;DHT22;34086;51.076;13.722;2022-12-07T01:50:48;3.60;99.90
48264;DHT22;34086;51.076;13.722;2022-12-07T01:51:52;3.60;99.90
48264;DHT22;34086;51.076;13.722;2022-12-07T01:52:56;3.50;99.90
48264;DHT22;34086;51.076;13.722;2022-12-07T01:53:58;3.50;99.90
48264;DHT22;34086;51.076;13.722;2022-12-07T01:55:03;3.50;99.90
48264;DHT22;34086;51.076;13.722;2022-12-07T01:56:06;3.50;99.90
48264;DHT22;34086;51.076;13.722;2022-12-07T01:57:08;3.50;99.90
48264;DHT22;34086;51.076;13.722;2022-12-07T01:58:09;3.50;99.90
48264;DHT22;34086;51.076;13.722;2022-12-07T01:59:11;3.50;99.90
48264;DHT22;34086;51.076;13.722;2022-12-07T02:00:12;3.50;99.90
48264;DHT22;34086;51.076;13.722;2022-12-07T02:01:14;3.50;99.90
48264;DHT22;34086;51.076;13.722;2022-12-07T02:02:21;3.50;99.90
48264;DHT22;34086;51.076;13.722;2022-12-07T02:03:32;3.50;99.90
48264;DHT22;34086;51.076;13.722;2022-12-07T02:04:36;3.50;99.90
48264;DHT22;34086;51.076;13.722;2022-12-07T02:05:38;3.50;99.90
48264;DHT22;34086;51.076;13.722;2022-12-07T02:06:41;3.50;99.90
48264;DHT22;34086;51.076;13.722;2022-12-07T02:07:47;3.50;99.90
48264;DHT22;34086;51.076;13.722;2022-12-07T02:08:49;3.50;99.90
48264;DHT22;34086;51.076;13.722;2022-12-07T02:09:49;3.50;99.90
48264;DHT22;34086;51.076;13.722;2022-12-07T02:10:50;3.50;99.90
48264;DHT22;34086;51.076;13.722;2022-12-07T02:11:51;3.50;99.90
48264;DHT22;34086;51.076;13.722;2022-12-07T02:13:02;3.50;99.90
48264;DHT22;34086;51.076;13.722;2022-12-07T02:14:03;3.50;99.90
48264;DHT22;34086;51.076;13.722;2022-12-07T02:15:04;3.50;99.90
48264;DHT22;34086;51.076;13.722;2022-12-07T02:17:20;3.40;99.90
48264;DHT22;34086;51.076;13.722;2022-12-07T02:21:06;3.20;99.90
48264;DHT22;34086;51.076;13.722;2022-12-07T02:24:55;3.00;99.90
48264;DHT22;34086;51.076;13.722;2022-12-07T02:26:14;3.00;99.90
48264;DHT22;34086;51.076;13.722;2022-12-07T02:28:37;2.90;99.90
48264;DHT22;34086;51.076;13.722;2022-12-07T02:31:21;2.80;99.90
48264;DHT22;34086;51.076;13.722;2022-12-07T02:36:00;2.60;99.90
48264;DHT22;34086;51.076;13.722;2022-12-07T02:39:42;2.50;99.90
48264;DHT22;34086;51.076;13.722;2022-12-07T02:40:54;2.50;99.90
48264;DHT22;34086;51.076;13.722;2022-12-07T02:42:08;2.50;99.90
48264;DHT22;34086;51.076;13.722;2022-12-07T02:43:23;2.40;99.90
48264;DHT22;34086;51.076;13.722;2022-12-07T02:44:26;2.40;99.90
48264;DHT22;34086;51.076;13.722;2022-12-07T02:45:29;2.40;99.90
48264;DHT22;34086;51.076;13.722;2022-12-07T02:46:40;2.40;99.90
48264;DHT22;34086;51.076;13.722;2022-12-07T02:47:43;2.30;99.90
48264;DHT22;34086;51.076;13.722;2022-12-07T02:48:45;2.30;99.90
48264;DHT22;34086;51.076;13.722;2022-12-07T02:49:49;2.30;99.90
48264;DHT22;34086;51.076;13.722;2022-12-07T02:50:54;2.30;99.90
48264;DHT22;34086;51.076;13.722;2022-12-07T02:51:54;2.30;99.90
48264;DHT22;34086;51.076;13.722;2022-12-07T02:52:55;2.30;99.90
48264;DHT22;34086;51.076;13.722;2022-12-07T02:53:56;2.30;99.90
48264;DHT22;34086;51.076;13.722;2022-12-07T02:54:57;2.30;99.90
48264;DHT22;34086;51.076;13.722;2022-12-07T02:56:05;2.30;99.90
48264;DHT22;34086;51.076;13.722;2022-12-07T02:57:29;2.30;99.90
48264;DHT22;34086;51.076;13.722;2022-12-07T02:58:43;2.30;99.90
48264;DHT22;34086;51.076;13.722;2022-12-07T03:00:04;2.30;99.90
48264;DHT22;34086;51.076;13.722;2022-12-07T03:01:15;2.40;99.90
48264;DHT22;34086;51.076;13.722;2022-12-07T03:02:25;2.40;99.90
48264;DHT22;34086;51.076;13.722;2022-12-07T03:03:28;2.40;99.90
48264;DHT22;34086;51.076;13.722;2022-12-07T03:08:47;2.50;99.90
48264;DHT22;34086;51.076;13.722;2022-12-07T03:10:00;2.50;99.90
48264;DHT22;34086;51.076;13.722;2022-12-07T03:11:07;2.50;99.90
48264;DHT22;34086;51.076;13.722;2022-12-07T03:12:16;2.50;99.90
48264;DHT22;34086;51.076;13.722;2022-12-07T03:13:34;2.60;99.90
48264;DHT22;34086;51.076;13.722;2022-12-07T03:14:45;2.60;99.90
48264;DHT22;34086;51.076;13.722;2022-12-07T03:16:02;2.60;99.90
48264;DHT22;34086;51.076;13.722;2022-12-07T03:17:13;2.70;99.90
48264;DHT22;34086;51.076;13.722;2022-12-07T03:18:18;2.70;99.90
48264;DHT22;34086;51.076;13.722;2022-12-07T03:19:22;2.70;99.90
48264;DHT22;34086;51.076;13.722;2022-12-07T03:20:26;2.70;99.90
48264;DHT22;34086;51.076;13.722;2022-12-07T03:21:41;2.60;99.90
48264;DHT22;34086;51.076;13.722;2022-12-07T03:22:44;2.60;99.90
48264;DHT22;34086;51.076;13.722;2022-12-07T03:23:50;2.60;99.90
48264;DHT22;34086;51.076;13.722;2022-12-07T03:24:55;2.60;99.90
48264;DHT22;34086;51.076;13.722;2022-12-07T03:26:00;2.50;99.90
48264;DHT22;34086;51.076;13.722;2022-12-07T03:27:12;2.50;99.90
48264;DHT22;34086;51.076;13.722;2022-12-07T03:28:17;2.50;99.90
48264;DHT22;34086;51.076;13.722;2022-12-07T03:29:27;2.40;99.90
48264;DHT22;34086;51.076;13.722;2022-12-07T03:30:33;2.40;99.90
48264;DHT22;34086;51.076;13.722;2022-12-07T03:31:40;2.40;99.90
48264;DHT22;34086;51.076;13.722;2022-12-07T03:32:58;2.30;99.90
48264;DHT22;34086;51.076;13.722;2022-12-07T03:35:19;2.30;99.90
48264;DHT22;34086;51.076;13.722;2022-12-07T03:36:39;2.20;99.90
48264;DHT22;34086;51.076;13.722;2022-12-07T03:37:50;2.20;99.90
48264;DHT22;34086;51.076;13.722;2022-12-07T03:39:25;2.20;99.90
48264;DHT22;34086;51.076;13.722;2022-12-07T03:41:53;2.30;99.90
48264;DHT22;34086;51.076;13.722;2022-12-07T03:42:55;2.30;99.90
48264;DHT22;34086;51.076;13.722;2022-12-07T03:43:57;2.30;99.90
48264;DHT22;34086;51.076;13.722;2022-12-07T03:44:59;2.40;99.90
48264;DHT22;34086;51.076;13.722;2022-12-07T03:46:37;2.40;99.90
48264;DHT22;34086;51.076;13.722;2022-12-07T03:47:53;2.40;99.90
48264;DHT22;34086;51.076;13.722;2022-12-07T03:51:53;2.30;99.90
48264;DHT22;34086;51.076;13.722;2022-12-07T03:53:00;2.30;99.90
48264;DHT22;34086;51.076;13.722;2022-12-07T03:55:28;2.30;99.90
48264;DHT22;34086;51.076;13.722;2022-12-07T03:56:30;2.30;99.90
48264;DHT22;34086;51.076;13.722;2022-12-07T03:57:33;2.30;99.90
48264;DHT22;34086;51.076;13.722;2022-12-07T03:58:35;2.30;99.90
48264;DHT22;34086;51.076;13.722;2022-12-07T03:59:37;2.30;99.90
48264;DHT22;34086;51.076;13.722;2022-12-07T04:00:38;2.30;99.90
48264;DHT22;34086;51.076;13.722;2022-12-07T04:01:45;2.30;99.90
48264;DHT22;34086;51.076;13.722;2022-12-07T04:02:52;2.30;99.90
48264;DHT22;34086;51.076;13.722;2022-12-07T04:03:53;2.30;99.90
48264;DHT22;34086;51.076;13.722;2022-12-07T04:04:54;2.30;99.90
48264;DHT22;34086;51.076;13.722;2022-12-07T04:05:56;2.30;99.90
48264;DHT22;34086;51.076;13.722;2022-12-07T04:06:58;2.30;99.90
48264;DHT22;34086;51.076;13.722;2022-12-07T04:07:59;2.30;99.90
48264;DHT22;34086;51.076;13.722;2022-12-07T04:09:00;2.30;99.90
48264;DHT22;34086;51.076;13.722;2022-12-07T04:10:00;2.40;99.90
48264;DHT22;34086;51.076;13.722;2022-12-07T04:11:01;2.40;99.90
48264;DHT22;34086;51.076;13.722;2022-12-07T04:12:02;2.40;99.90
48264;DHT22;34086;51.076;13.722;2022-12-07T04:13:03;2.40;99.90
48264;DHT22;34086;51.076;13.722;2022-12-07T04:14:03;2.40;99.90
48264;DHT22;34086;51.076;13.722;2022-12-07T04:15:19;2.40;99.90
48264;DHT22;34086;51.076;13.722;2022-12-07T04:16:19;2.30;99.90
48264;DHT22;34086;51.076;13.722;2022-12-07T04:17:20;2.40;99.90
48264;DHT22;34086;51.076;13.722;2022-12-07T04:18:21;2.40;99.90
48264;DHT22;34086;51.076;13.722;2022-12-07T04:19:26;2.30;99.90
48264;DHT22;34086;51.076;13.722;2022-12-07T04:20:27;2.30;99.90
48264;DHT22;34086;51.076;13.722;2022-12-07T04:21:28;2.30;99.90
48264;DHT22;34086;51.076;13.722;2022-12-07T04:22:29;2.30;99.90
48264;DHT22;34086;51.076;13.722;2022-12-07T04:23:30;2.20;99.90
48264;DHT22;34086;51.076;13.722;2022-12-07T04:24:31;2.20;99.90
48264;DHT22;34086;51.076;13.722;2022-12-07T04:25:32;2.20;99.90
48264;DHT22;34086;51.076;13.722;2022-12-07T04:26:32;2.20;99.90
48264;DHT22;34086;51.076;13.722;2022-12-07T04:27:33;2.20;99.90
48264;DHT22;34086;51.076;13.722;2022-12-07T04:28:34;2.20;99.90
48264;DHT22;34086;51.076;13.722;2022-12-07T04:29:35;2.20;99.90
48264;DHT22;34086;51.076;13.722;2022-12-07T04:30:35;2.10;99.90
48264;DHT22;34086;51.076;13.722;2022-12-07T04:31:37;2.10;99.90
48264;DHT22;34086;51.076;13.722;2022-12-07T04:32:38;2.10;99.90
48264;DHT22;34086;51.076;13.722;2022-12-07T04:33:38;2.10;99.90
48264;DHT22;34086;51.076;13.722;2022-12-07T04:34:39;2.10;99.90
48264;DHT22;34086;51.076;13.722;2022-12-07T04:35:42;2.00;99.90
48264;DHT22;34086;51.076;13.722;2022-12-07T04:36:44;2.00;99.90
48264;DHT22;34086;51.076;13.722;2022-12-07T04:37:45;2.00;99.90
48264;DHT22;34086;51.076;13.722;2022-12-07T04:38:46;2.00;99.90
48264;DHT22;34086;51.076;13.722;2022-12-07T04:39:47;2.00;99.90
48264;DHT22;34086;51.076;13.722;2022-12-07T04:40:47;2.00;99.90
48264;DHT22;34086;51.076;13.722;2022-12-07T04:41:48;2.10;99.90
48264;DHT22;34086;51.076;13.722;2022-12-07T04:42:49;2.10;99.90
48264;DHT22;34086;51.076;13.722;2022-12-07T04:43:50;2.10;99.90
48264;DHT22;34086;51.076;13.722;2022-12-07T04:44:50;2.10;99.90
48264;DHT22;34086;51.076;13.722;2022-12-07T04:45:51;2.10;99.90
48264;DHT22;34086;51.076;13.722;2022-12-07T04:46:52;2.00;99.90
48264;DHT22;34086;51.076;13.722;2022-12-07T04:47:53;2.00;99.90
48264;DHT22;34086;51.076;13.722;2022-12-07T04:48:55;2.00;99.90
48264;DHT22;34086;51.076;13.722;2022-12-07T04:49:55;2.00;99.90
48264;DHT22;34086;51.076;13.722;2022-12-07T04:50:56;2.00;99.90
48264;DHT22;34086;51.076;13.722;2022-12-07T04:51:57;1.90;99.90
48264;DHT22;34086;51.076;13.722;2022-12-07T04:52:57;1.90;99.90
48264;DHT22;34086;51.076;13.722;2022-12-07T04:53:58;1.90;99.90
48264;DHT22;34086;51.076;13.722;2022-12-07T04:54:59;1.90;99.90
48264;DHT22;34086;51.076;13.722;2022-12-07T04:56:00;1.80;99.90
48264;DHT22;34086;51.076;13.722;2022-12-07T04:57:01;1.80;99.90
48264;DHT22;34086;51.076;13.722;2022-12-07T04:58:02;1.80;99.90
48264;DHT22;34086;51.076;13.722;2022-12-07T04:59:06;1.80;99.90
48264;DHT22;34086;51.076;13.722;2022-12-07T05:00:07;1.80;99.90
48264;DHT22;34086;51.076;13.722;2022-12-07T05:01:08;1.70;99.90
48264;DHT22;34086;51.076;13.722;2022-12-07T05:02:09;1.70;99.90
48264;DHT22;34086;51.076;13.722;2022-12-07T05:03:10;1.80;99.90
48264;DHT22;34086;51.076;13.722;2022-12-07T05:04:10;1.70;99.90
48264;DHT22;34086;51.076;13.722;2022-12-07T05:05:11;1.70;99.90
48264;DHT22;34086;51.076;13.722;2022-12-07T05:06:13;1.70;99.90
48264;DHT22;34086;51.076;13.722;2022-12-07T05:07:13;1.70;99.90
48264;DHT22;34086;51.076;13.722;2022-12-07T05:08:14;1.70;99.90
48264;DHT22;34086;51.076;13.722;2022-12-07T05:09:15;1.70;99.90
48264;DHT22;34086;51.076;13.722;2022-12-07T05:10:16;1.70;99.90
48264;DHT22;34086;51.076;13.722;2022-12-07T05:11:16;1.80;99.90
48264;DHT22;34086;51.076;13.722;2022-12-07T05:12:36;1.80;99.90
48264;DHT22;34086;51.076;13.722;2022-12-07T05:13:36;1.80;99.90
48264;DHT22;34086;51.076;13.722;2022-12-07T05:14:37;1.80;99.90
48264;DHT22;34086;51.076;13.722;2022-12-07T05:15:38;1.80;99.90
48264;DHT22;34086;51.076;13.722;2022-12-07T05:16:39;1.90;99.90
48264;DHT22;34086;51.076;13.722;2022-12-07T05:17:40;1.90;99.90
48264;DHT22;34086;51.076;13.722;2022-12-07T05:18:41;1.90;99.90
48264;DHT22;34086;51.076;13.722;2022-12-07T05:19:42;1.90;99.90
48264;DHT22;34086;51.076;13.722;2022-12-07T05:20:43;1.90;99.90
48264;DHT22;34086;51.076;13.722;2022-12-07T05:21:45;1.90;99.90
48264;DHT22;34086;51.076;13.722;2022-12-07T05:22:46;1.90;99.90
48264;DHT22;34086;51.076;13.722;2022-12-07T05:23:46;1.90;99.90
48264;DHT22;34086;51.076;13.722;2022-12-07T05:24:47;2.00;99.90
48264;DHT22;34086;51.076;13.722;2022-12-07T05:25:48;2.00;99.90
48264;DHT22;34086;51.076;13.722;2022-12-07T05:26:48;2.00;99.90
48264;DHT22;34086;51.076;13.722;2022-12-07T05:27:49;2.00;99.90
48264;DHT22;34086;51.076;13.722;2022-12-07T05:28:51;2.00;99.90
48264;DHT22;34086;51.076;13.722;2022-12-07T05:29:52;2.10;99.90
48264;DHT22;34086;51.076;13.722;2022-12-07T05:30:53;2.10;99.90
48264;DHT22;34086;51.076;13.722;2022-12-07T05:31:54;2.10;99.90
48264;DHT22;34086;51.076;13.722;2022-12-07T05:32:55;2.20;99.90
48264;DHT22;34086;51.076;13.722;2022-12-07T05:33:55;2.20;99.90
48264;DHT22;34086;51.076;13.722;2022-12-07T05:34:56;2.30;99.90
48264;DHT22;34086;51.076;13.722;2022-12-07T05:35:57;2.30;99.90
48264;DHT22;34086;51.076;13.722;2022-12-07T05:36:57;2.40;99.90
48264;DHT22;34086;51.076;13.722;2022-12-07T05:37:58;2.40;99.90
48264;DHT22;34086;51.076;13.722;2022-12-07T05:38:59;2.40;99.90
48264;DHT22;34086;51.076;13.722;2022-12-07T05:40:00;2.40;99.90
48264;DHT22;34086;51.076;13.722;2022-12-07T05:41:02;2.50;99.90
48264;DHT22;34086;51.076;13.722;2022-12-07T05:42:04;2.50;99.90
48264;DHT22;34086;51.076;13.722;2022-12-07T05:43:15;2.50;99.90
48264;DHT22;34086;51.076;13.722;2022-12-07T05:44:15;2.50;99.90
48264;DHT22;34086;51.076;13.722;2022-12-07T05:45:16;2.60;99.90
48264;DHT22;34086;51.076;13.722;2022-12-07T05:46:17;2.60;99.90
48264;DHT22;34086;51.076;13.722;2022-12-07T05:47:17;2.60;99.90
48264;DHT22;34086;51.076;13.722;2022-12-07T05:48:18;2.70;99.90
48264;DHT22;34086;51.076;13.722;2022-12-07T05:49:19;2.60;99.90
48264;DHT22;34086;51.076;13.722;2022-12-07T05:50:20;2.60;99.90
48264;DHT22;34086;51.076;13.722;2022-12-07T05:51:34;2.70;99.90
48264;DHT22;34086;51.076;13.722;2022-12-07T05:52:35;2.70;99.90
48264;DHT22;34086;51.076;13.722;2022-12-07T05:53:35;2.70;99.90
48264;DHT22;34086;51.076;13.722;2022-12-07T05:54:36;2.80;99.90
48264;DHT22;34086;51.076;13.722;2022-12-07T05:55:37;2.80;99.90
48264;DHT22;34086;51.076;13.722;2022-12-07T05:56:37;2.80;99.90
48264;DHT22;34086;51.076;13.722;2022-12-07T05:57:38;2.80;99.90
48264;DHT22;34086;51.076;13.722;2022-12-07T05:58:39;2.90;99.90
48264;DHT22;34086;51.076;13.722;2022-12-07T05:59:58;2.90;99.90
48264;DHT22;34086;51.076;13.722;2022-12-07T06:00:59;2.90;99.90
48264;DHT22;34086;51.076;13.722;2022-12-07T06:02:11;2.90;99.90
48264;DHT22;34086;51.076;13.722;2022-12-07T06:03:12;2.90;99.90
48264;DHT22;34086;51.076;13.722;2022-12-07T06:04:13;2.90;99.90
48264;DHT22;34086;51.076;13.722;2022-12-07T06:05:14;3.00;99.90
48264;DHT22;34086;51.076;13.722;2022-12-07T06:06:14;3.00;99.90
48264;DHT22;34086;51.076;13.722;2022-12-07T06:07:16;3.00;99.90
48264;DHT22;34086;51.076;13.722;2022-12-07T06:08:17;3.00;99.90
48264;DHT22;34086;51.076;13.722;2022-12-07T06:09:19;3.00;99.90
48264;DHT22;34086;51.076;13.722;2022-12-07T06:10:20;3.00;99.90
48264;DHT22;34086;51.076;13.722;2022-12-07T06:11:21;3.00;99.90
48264;DHT22;34086;51.076;13.722;2022-12-07T06:12:40;3.00;99.90
48264;DHT22;34086;51.076;13.722;2022-12-07T06:13:43;3.10;99.90
48264;DHT22;34086;51.076;13.722;2022-12-07T06:14:44;3.10;99.90
48264;DHT22;34086;51.076;13.722;2022-12-07T06:15:45;3.20;99.90
48264;DHT22;34086;51.076;13.722;2022-12-07T06:16:47;3.20;99.90
48264;DHT22;34086;51.076;13.722;2022-12-07T06:17:48;3.20;99.90
48264;DHT22;34086;51.076;13.722;2022-12-07T06:18:49;3.20;99.90
48264;DHT22;34086;51.076;13.722;2022-12-07T06:19:49;3.20;99.90
48264;DHT22;34086;51.076;13.722;2022-12-07T06:20:50;3.20;99.90
48264;DHT22;34086;51.076;13.722;2022-12-07T06:21:51;3.20;99.90
48264;DHT22;34086;51.076;13.722;2022-12-07T06:22:52;3.20;99.90
48264;DHT22;34086;51.076;13.722;2022-12-07T06:23:52;3.20;99.90
48264;DHT22;34086;51.076;13.722;2022-12-07T06:24:53;3.20;99.90
48264;DHT22;34086;51.076;13.722;2022-12-07T06:25:54;3.20;99.90
48264;DHT22;34086;51.076;13.722;2022-12-07T06:26:54;3.20;99.90
48264;DHT22;34086;51.076;13.722;2022-12-07T06:27:55;3.20;99.90
48264;DHT22;34086;51.076;13.722;2022-12-07T06:28:56;3.20;99.90
48264;DHT22;34086;51.076;13.722;2022-12-07T06:29:56;3.20;99.90
48264;DHT22;34086;51.076;13.722;2022-12-07T06:30:59;3.20;99.90
48264;DHT22;34086;51.076;13.722;2022-12-07T06:32:00;3.20;99.90
48264;DHT22;34086;51.076;13.722;2022-12-07T06:33:00;3.20;99.90
48264;DHT22;34086;51.076;13.722;2022-12-07T06:34:06;3.20;99.90
48264;DHT22;34086;51.076;13.722;2022-12-07T06:35:08;3.20;99.90
48264;DHT22;34086;51.076;13.722;2022-12-07T06:36:09;3.20;99.90
48264;DHT22;34086;51.076;13.722;2022-12-07T06:37:10;3.20;99.90
48264;DHT22;34086;51.076;13.722;2022-12-07T06:38:11;3.20;99.90
48264;DHT22;34086;51.076;13.722;2022-12-07T06:39:11;3.30;99.90
48264;DHT22;34086;51.076;13.722;2022-12-07T06:40:12;3.30;99.90
48264;DHT22;34086;51.076;13.722;2022-12-07T06:41:13;3.30;99.90
48264;DHT22;34086;51.076;13.722;2022-12-07T06:42:13;3.30;99.90
48264;DHT22;34086;51.076;13.722;2022-12-07T06:43:14;3.30;99.90
48264;DHT22;34086;51.076;13.722;2022-12-07T06:44:15;3.30;99.90
48264;DHT22;34086;51.076;13.722;2022-12-07T06:45:15;3.30;99.90
48264;DHT22;34086;51.076;13.722;2022-12-07T06:46:16;3.20;99.90
48264;DHT22;34086;51.076;13.722;2022-12-07T06:47:17;3.20;99.90
48264;DHT22;34086;51.076;13.722;2022-12-07T06:48:18;3.20;99.90
48264;DHT22;34086;51.076;13.722;2022-12-07T06:49:18;3.20;99.90
48264;DHT22;34086;51.076;13.722;2022-12-07T06:50:19;3.30;99.90
48264;DHT22;34086;51.076;13.722;2022-12-07T06:51:20;3.20;99.90
48264;DHT22;34086;51.076;13.722;2022-12-07T06:52:21;3.20;99.90
48264;DHT22;34086;51.076;13.722;2022-12-07T06:53:22;3.30;99.90
48264;DHT22;34086;51.076;13.722;2022-12-07T06:54:23;3.20;99.90
48264;DHT22;34086;51.076;13.722;2022-12-07T06:55:24;3.20;99.90
48264;DHT22;34086;51.076;13.722;2022-12-07T06:56:24;3.20;99.90
48264;DHT22;34086;51.076;13.722;2022-12-07T06:57:26;3.20;99.90
48264;DHT22;34086;51.076;13.722;2022-12-07T06:58:27;3.20;99.90
48264;DHT22;34086;51.076;13.722;2022-12-07T06:59:27;3.20;99.90
48264;DHT22;34086;51.076;13.722;2022-12-07T07:00:29;3.20;99.90
48264;DHT22;34086;51.076;13.722;2022-12-07T07:01:29;3.20;99.90
48264;DHT22;34086;51.076;13.722;2022-12-07T07:02:30;3.20;99.90
48264;DHT22;34086;51.076;13.722;2022-12-07T07:03:31;3.20;99.90
48264;DHT22;34086;51.076;13.722;2022-12-07T07:04:31;3.20;99.90
48264;DHT22;34086;51.076;13.722;2022-12-07T07:05:32;3.20;99.90
48264;DHT22;34086;51.076;13.722;2022-12-07T07:06:33;3.20;99.90